createdAt,value
2022-11-29T00:01:36.123Z,25.08
2022-11-29T00:04:04.540Z,26.77
2022-11-29T00:06:34.698Z,24.73
2022-11-29T00:09:07.594Z,24.48
2022-11-29T00:11:56.491Z,23.85
2022-11-29T00:14:25.261Z,23.35
2022-11-29T00:16:56.194Z,23.20
2022-11-29T00:19:23.448Z,23.27
2022-11-29T00:21:50.764Z,22.35
2022-11-29T00:24:17.655Z,23.88
2022-11-29T00:26:44.584Z,22.55
2022-11-29T00:29:13.066Z,24.40
2022-11-29T00:31:41.182Z,24.05
2022-11-29T00:34:10.508Z,24.17
2022-11-29T00:36:38.511Z,23.58
2022-11-29T00:39:06.084Z,23.48
2022-11-29T00:41:33.558Z,24.73
2022-11-29T00:44:00.779Z,25.02
2022-11-29T00:46:27.637Z,23.67
2022-11-29T00:48:54.341Z,23.85
2022-11-29T00:51:21.116Z,25.75
2022-11-29T00:53:47.905Z,27.15
2022-11-29T00:56:14.666Z,28.77
2022-11-29T00:58:43.520Z,28.35
2022-11-29T01:01:11.645Z,23.08
2022-11-29T01:03:38.664Z,24.70
2022-11-29T01:06:10.267Z,23.73
2022-11-29T01:08:37.862Z,25.35
2022-11-29T01:11:14.827Z,26.55
2022-11-29T01:13:43.396Z,26.65
2022-11-29T01:16:10.826Z,26.33
2022-11-29T01:18:38.454Z,26.65
2022-11-29T01:21:13.627Z,26.73
2022-11-29T01:23:41.121Z,23.92
2022-11-29T01:26:13.841Z,26.52
2022-11-29T01:28:42.122Z,23.92
2022-11-29T01:31:29.612Z,26.50
2022-11-29T01:34:00.289Z,25.25
2022-11-29T01:36:27.774Z,25.65
2022-11-29T01:38:54.701Z,24.67
2022-11-29T01:41:27.010Z,26.50
2022-11-29T01:46:43.688Z,24.70
2022-11-29T01:49:15.080Z,23.35
2022-11-29T01:51:50.329Z,23.50
2022-11-29T01:54:18.918Z,26.80
2022-11-29T01:56:50.266Z,24.05
2022-11-29T01:59:22.116Z,24.88
2022-11-29T02:01:49.129Z,24.67
2022-11-29T02:04:18.470Z,25.15
2022-11-29T02:06:46.847Z,26.65
2022-11-29T02:09:20.990Z,26.42
2022-11-29T02:12:09.462Z,28.92
2022-11-29T02:15:07.210Z,26.73
2022-11-29T02:18:33.754Z,25.02
2022-11-29T02:21:19.802Z,33.22
2022-11-29T02:24:30.839Z,30.48
2022-11-29T02:27:37.579Z,24.67
2022-11-29T02:30:47.693Z,27.77
2022-11-29T02:36:34.333Z,25.60
2022-11-29T02:39:39.277Z,27.58
2022-11-29T02:42:24.708Z,23.25
2022-11-29T02:45:04.860Z,23.52
2022-11-29T02:48:17.686Z,30.17
2022-11-29T02:51:06.373Z,29.83
2022-11-29T02:53:51.215Z,34.00
2022-11-29T02:56:27.442Z,26.58
2022-11-29T02:59:34.677Z,34.65
2022-11-29T03:02:10.249Z,24.15
2022-11-29T03:04:49.921Z,26.85
2022-11-29T03:07:44.462Z,25.92
2022-11-29T03:10:30.531Z,25.77
2022-11-29T03:12:59.796Z,24.85
2022-11-29T03:15:34.523Z,25.80
2022-11-29T03:18:31.999Z,27.02
2022-11-29T03:21:32.466Z,24.42
2022-11-29T03:24:09.269Z,26.55
2022-11-29T03:26:57.724Z,25.05
2022-11-29T03:29:35.928Z,31.75
2022-11-29T03:32:15.293Z,26.58
2022-11-29T03:35:02.728Z,27.15
2022-11-29T03:37:53.187Z,24.25
2022-11-29T03:40:31.630Z,23.00
2022-11-29T03:43:09.448Z,23.20
2022-11-29T03:45:45.480Z,24.17
2022-11-29T03:48:23.598Z,22.58
2022-11-29T03:50:56.596Z,23.52
2022-11-29T03:53:42.455Z,23.55
2022-11-29T03:56:34.947Z,23.08
2022-11-29T03:59:30.052Z,24.48
2022-11-29T04:02:14.648Z,25.15
2022-11-29T04:04:47.490Z,23.40
2022-11-29T04:07:50.646Z,21.13
2022-11-29T04:11:07.681Z,22.35
2022-11-29T04:14:00.659Z,20.25
2022-11-29T04:16:51.770Z,21.45
2022-11-29T04:19:52.524Z,22.45
2022-11-29T04:22:40.468Z,24.88
2022-11-29T04:25:52.775Z,24.00
2022-11-29T04:29:00.667Z,24.38
2022-11-29T04:32:18.303Z,25.35
2022-11-29T04:35:33.306Z,25.15
2022-11-29T04:38:29.034Z,23.80
2022-11-29T04:41:36.351Z,24.10
2022-11-29T04:44:57.221Z,23.85
2022-11-29T04:47:56.403Z,23.38
2022-11-29T04:51:01.816Z,25.45
2022-11-29T04:54:01.644Z,23.38
2022-11-29T04:56:42.796Z,30.17
2022-11-29T04:59:25.426Z,29.38
2022-11-29T05:02:51.210Z,26.10
2022-11-29T05:05:43.048Z,28.20
2022-11-29T05:08:43.809Z,27.65
2022-11-29T05:11:48.095Z,27.33
2022-11-29T05:14:49.073Z,27.13
2022-11-29T05:17:33.023Z,29.80
2022-11-29T05:20:34.198Z,30.55
2022-11-29T05:23:44.250Z,28.67
2022-11-29T05:26:38.345Z,25.63
2022-11-29T05:29:19.569Z,27.98
2022-11-29T05:32:30.017Z,28.77
2022-11-29T05:35:27.204Z,29.02
2022-11-29T05:38:35.053Z,31.98
2022-11-29T05:41:21.989Z,27.15
2022-11-29T05:44:10.274Z,33.30
2022-11-29T05:47:00.044Z,23.77
2022-11-29T05:50:21.655Z,22.40
2022-11-29T05:53:16.923Z,30.75
2022-11-29T05:56:18.695Z,23.40
2022-11-29T05:58:56.936Z,26.00
2022-11-29T06:01:53.431Z,29.60
2022-11-29T06:04:57.279Z,27.77
2022-11-29T06:08:07.084Z,28.92
2022-11-29T06:10:52.353Z,29.48
2022-11-29T06:13:36.747Z,26.80
2022-11-29T06:16:28.540Z,25.38
2022-11-29T06:19:07.252Z,26.58
2022-11-29T06:21:59.491Z,27.98
2022-11-29T06:24:43.485Z,24.63
2022-11-29T06:27:50.668Z,26.23
2022-11-29T06:30:26.274Z,26.13
2022-11-29T06:33:18.001Z,27.25
2022-11-29T06:36:00.940Z,25.08
2022-11-29T06:38:30.843Z,27.58
2022-11-29T06:41:02.078Z,28.17
2022-11-29T06:43:30.320Z,17.98
2022-11-29T06:46:26.725Z,25.30
2022-11-29T06:49:22.103Z,25.38
2022-11-29T06:52:01.790Z,22.95
2022-11-29T06:55:03.755Z,24.92
2022-11-29T06:57:56.364Z,27.48
2022-11-29T07:00:51.254Z,23.05
2022-11-29T07:03:48.680Z,26.45
2022-11-29T07:06:25.938Z,17.92
2022-11-29T07:09:00.985Z,22.42
2022-11-29T07:11:28.728Z,25.83
2022-11-29T07:13:55.941Z,15.43
2022-11-29T07:16:47.481Z,19.08
2022-11-29T07:22:21.688Z,23.45
2022-11-29T07:25:12.933Z,20.67
2022-11-29T07:30:39.591Z,19.75
2022-11-29T07:33:21.159Z,28.00
2022-11-29T07:36:17.972Z,24.33
2022-11-29T07:39:01.432Z,22.17
2022-11-29T07:42:00.432Z,22.98
2022-11-29T07:45:06.696Z,19.80
2022-11-29T07:47:35.982Z,24.58
2022-11-29T07:50:04.345Z,22.77
2022-11-29T07:52:31.166Z,26.23
2022-11-29T07:54:59.139Z,26.73
2022-11-29T07:57:25.834Z,22.90
2022-11-29T07:59:52.564Z,12.02
2022-11-29T08:02:30.906Z,22.90
2022-11-29T08:04:58.411Z,27.63
2022-11-29T08:07:25.481Z,27.52
2022-11-29T08:09:52.229Z,21.02
2022-11-29T08:12:19.192Z,20.58
2022-11-29T08:14:46.119Z,23.40
2022-11-29T08:17:13.055Z,15.18
2022-11-29T08:19:39.795Z,24.23
2022-11-29T08:22:06.721Z,24.58
2022-11-29T08:24:33.476Z,25.40
2022-11-29T08:27:00.382Z,28.25
2022-11-29T08:29:27.530Z,26.88
2022-11-29T08:31:54.791Z,27.40
2022-11-29T08:34:23.984Z,22.40
2022-11-29T08:36:51.699Z,23.60
2022-11-29T08:39:18.448Z,25.20
2022-11-29T08:41:45.219Z,17.98
2022-11-29T08:44:12.074Z,20.95
2022-11-29T08:46:57.188Z,24.63
2022-11-29T08:49:23.928Z,26.00
2022-11-29T08:51:53.359Z,27.38
2022-11-29T08:54:20.142Z,24.38
2022-11-29T08:57:23.581Z,24.27
2022-11-29T08:59:33.798Z,25.10
2022-11-29T09:02:00.981Z,23.00
2022-11-29T09:04:27.796Z,23.25
2022-11-29T09:06:54.518Z,23.75
2022-11-29T09:09:21.927Z,25.80
2022-11-29T09:11:49.745Z,22.70
2022-11-29T09:14:17.595Z,23.58
2022-11-29T09:16:44.365Z,21.08
2022-11-29T09:19:14.512Z,20.05
2022-11-29T09:21:41.465Z,19.98
2022-11-29T09:24:09.321Z,21.08
2022-11-29T09:26:38.090Z,20.80
2022-11-29T09:29:06.716Z,20.88
2022-11-29T09:31:35.083Z,19.63
2022-11-29T09:34:02.069Z,22.42
2022-11-29T09:36:30.845Z,21.95
2022-11-29T09:39:02.543Z,22.38
2022-11-29T09:41:48.678Z,20.70
2022-11-29T09:44:45.353Z,19.98
2022-11-29T09:47:33.478Z,19.92
2022-11-29T09:50:37.107Z,15.77
2022-11-29T09:53:27.692Z,14.27
2022-11-29T09:56:25.711Z,14.20
2022-11-29T09:59:01.221Z,17.30
2022-11-29T10:01:34.617Z,15.43
2022-11-29T10:04:10.116Z,16.08
2022-11-29T10:06:45.678Z,15.25
2022-11-29T10:10:07.470Z,14.05
2022-11-29T10:12:46.105Z,14.82
2022-11-29T10:17:59.977Z,15.50
2022-11-29T10:20:36.505Z,17.73
2022-11-29T10:23:33.829Z,16.52
2022-11-29T10:26:01.051Z,17.17
2022-11-29T10:28:33.516Z,14.95
2022-11-29T10:34:10.639Z,16.60
2022-11-29T10:36:46.724Z,17.65
2022-11-29T10:39:42.185Z,19.27
2022-11-29T10:42:40.959Z,18.83
2022-11-29T10:45:30.520Z,16.95
2022-11-29T10:48:07.874Z,17.08
2022-11-29T10:50:37.336Z,16.98
2022-11-29T10:53:13.694Z,15.77
2022-11-29T10:55:48.608Z,15.80
2022-11-29T10:58:23.372Z,15.20
2022-11-29T11:01:00.148Z,16.00
2022-11-29T11:03:53.382Z,15.50
2022-11-29T11:06:28.490Z,16.58
2022-11-29T11:09:12.464Z,15.40
2022-11-29T11:11:40.271Z,15.02
2022-11-29T11:14:25.464Z,14.68
2022-11-29T11:16:53.944Z,9.25
2022-11-29T11:19:34.700Z,9.00
2022-11-29T11:22:04.079Z,12.40
2022-11-29T11:24:41.842Z,13.75
2022-11-29T11:27:08.687Z,15.02
2022-11-29T11:29:42.426Z,14.32
2022-11-29T11:32:19.620Z,11.30
2022-11-29T11:35:00.628Z,15.70
2022-11-29T11:37:30.052Z,14.85
2022-11-29T11:40:01.391Z,15.90
2022-11-29T11:42:40.979Z,15.02
2022-11-29T11:45:27.301Z,12.15
2022-11-29T11:48:02.999Z,15.43
2022-11-29T11:50:34.903Z,12.30
2022-11-29T11:53:18.217Z,13.70
2022-11-29T11:56:01.030Z,15.18
2022-11-29T11:58:45.830Z,13.85
2022-11-29T12:01:12.545Z,13.35
2022-11-29T12:03:51.119Z,13.05
2022-11-29T12:08:48.403Z,13.80
2022-11-29T12:11:18.877Z,13.88
2022-11-29T12:13:53.096Z,13.65
2022-11-29T12:16:30.472Z,13.27
2022-11-29T12:19:26.962Z,11.40
2022-11-29T12:22:06.710Z,13.25
2022-11-29T12:24:54.143Z,13.60
2022-11-29T12:27:21.271Z,12.68
2022-11-29T12:29:48.266Z,12.52
2022-11-29T12:32:41.145Z,12.45
2022-11-29T12:35:42.077Z,12.93
2022-11-29T12:38:37.408Z,14.70
2022-11-29T12:41:31.552Z,13.85
2022-11-29T12:44:29.545Z,14.27
2022-11-29T12:47:38.176Z,13.55
2022-11-29T12:50:37.931Z,13.73
2022-11-29T12:53:34.741Z,13.52
2022-11-29T12:56:25.839Z,13.63
2022-11-29T12:59:32.003Z,14.80
2022-11-29T13:02:42.623Z,16.05
2022-11-29T13:05:38.616Z,15.40
2022-11-29T13:08:38.201Z,15.88
2022-11-29T13:11:14.457Z,16.00
2022-11-29T13:13:45.179Z,15.60
2022-11-29T13:17:17.444Z,16.08
2022-11-29T13:19:58.053Z,14.95
2022-11-29T13:22:52.222Z,15.73
2022-11-29T13:25:28.352Z,14.45
2022-11-29T13:28:04.815Z,15.75
2022-11-29T13:30:34.852Z,16.65
2022-11-29T13:33:24.977Z,16.33
2022-11-29T13:36:21.358Z,16.60
2022-11-29T13:39:28.355Z,17.35
2022-11-29T13:42:21.986Z,15.68
2022-11-29T13:45:17.532Z,16.60
2022-11-29T13:47:51.004Z,16.75
2022-11-29T13:50:46.169Z,17.45
2022-11-29T13:53:19.129Z,15.35
2022-11-29T13:56:00.196Z,16.52
2022-11-29T13:58:38.118Z,17.48
2022-11-29T14:01:12.407Z,17.15
2022-11-29T14:03:41.882Z,16.70
2022-11-29T14:06:31.345Z,16.70
2022-11-29T14:09:22.400Z,17.00
2022-11-29T14:12:18.924Z,17.23
2022-11-29T14:15:05.728Z,16.40
2022-11-29T14:17:45.344Z,17.83
2022-11-29T14:20:24.929Z,17.80
2022-11-29T14:23:07.404Z,16.48
2022-11-29T14:25:51.615Z,18.67
2022-11-29T14:31:02.811Z,18.38
2022-11-29T14:33:51.790Z,17.02
2022-11-29T14:36:45.460Z,17.60
2022-11-29T14:39:29.941Z,19.33
2022-11-29T14:42:18.707Z,17.83
2022-11-29T14:44:54.482Z,18.77
2022-11-29T14:47:48.537Z,18.50
2022-11-29T14:50:39.044Z,18.55
2022-11-29T14:53:26.668Z,16.40
2022-11-29T14:56:31.103Z,19.05
2022-11-29T14:59:47.636Z,15.55
2022-11-29T15:02:34.760Z,17.48
2022-11-29T15:05:29.056Z,17.75
2022-11-29T15:08:37.763Z,13.30
2022-11-29T15:11:27.080Z,18.10
2022-11-29T15:14:37.946Z,20.02
2022-11-29T15:17:10.731Z,20.45
2022-11-29T15:20:28.056Z,19.20
2022-11-29T15:23:01.041Z,17.92
2022-11-29T15:25:31.886Z,17.42
2022-11-29T15:28:01.788Z,19.58
2022-11-29T15:30:39.133Z,20.83
2022-11-29T15:33:19.360Z,19.73
2022-11-29T15:35:53.164Z,19.00
2022-11-29T15:38:22.699Z,19.30
2022-11-29T15:40:53.071Z,17.73
2022-11-29T15:43:37.704Z,18.60
2022-11-29T15:46:04.633Z,20.20
2022-11-29T15:48:32.867Z,18.80
2022-11-29T15:51:31.310Z,17.98
2022-11-29T15:54:13.269Z,18.40
2022-11-29T15:56:54.800Z,15.93
2022-11-29T15:59:39.346Z,16.63
2022-11-29T16:02:29.480Z,16.45
2022-11-29T16:05:01.947Z,19.60
2022-11-29T16:07:34.351Z,17.55
2022-11-29T16:10:19.591Z,18.05
2022-11-29T16:13:04.796Z,15.93
2022-11-29T16:15:38.978Z,15.63
2022-11-29T16:18:18.905Z,16.65
2022-11-29T16:21:00.070Z,18.27
2022-11-29T16:23:44.187Z,18.85
2022-11-29T16:26:28.409Z,18.02
2022-11-29T16:28:57.965Z,18.25
2022-11-29T16:31:38.345Z,18.58
2022-11-29T16:34:26.612Z,19.63
2022-11-29T16:37:20.445Z,18.00
2022-11-29T16:39:51.030Z,15.80
2022-11-29T16:42:32.298Z,13.45
2022-11-29T16:45:04.525Z,17.35
2022-11-29T16:47:58.003Z,18.02
2022-11-29T16:50:34.917Z,17.42
2022-11-29T16:53:38.415Z,16.58
2022-11-29T16:56:10.292Z,16.92
2022-11-29T16:59:17.144Z,15.07
2022-11-29T17:01:29.068Z,16.35
2022-11-29T17:03:59.949Z,14.20
2022-11-29T17:06:29.533Z,16.67
2022-11-29T17:08:59.358Z,17.38
2022-11-29T17:11:26.178Z,15.93
2022-11-29T17:13:53.559Z,15.93
2022-11-29T17:16:23.845Z,17.10
2022-11-29T17:18:52.806Z,11.90
2022-11-29T17:21:22.953Z,15.80
2022-11-29T17:23:51.250Z,15.05
2022-11-29T17:26:19.018Z,15.55
2022-11-29T17:28:48.431Z,13.20
2022-11-29T17:31:22.239Z,10.38
2022-11-29T17:33:50.070Z,17.90
2022-11-29T17:36:20.477Z,16.00
2022-11-29T17:38:48.573Z,16.90
2022-11-29T17:41:20.827Z,15.27
2022-11-29T17:46:19.121Z,15.38
2022-11-29T17:48:46.312Z,14.98
2022-11-29T17:51:43.608Z,16.13
2022-11-29T17:54:04.375Z,16.92
2022-11-29T17:56:31.260Z,17.45
2022-11-29T17:59:02.301Z,16.38
2022-11-29T18:01:33.141Z,13.23
2022-11-29T18:04:03.825Z,17.27
2022-11-29T18:06:39.639Z,16.60
2022-11-29T18:09:09.235Z,16.83
2022-11-29T18:11:47.984Z,18.20
2022-11-29T18:14:28.041Z,18.63
2022-11-29T18:16:55.006Z,17.45
2022-11-29T18:19:23.079Z,17.52
2022-11-29T18:21:51.092Z,19.05
2022-11-29T18:24:18.484Z,15.77
2022-11-29T18:26:45.883Z,13.20
2022-11-29T18:29:12.644Z,14.18
2022-11-29T18:31:43.883Z,10.00
2022-11-29T18:34:13.547Z,15.40
2022-11-29T18:36:45.012Z,17.70
2022-11-29T18:39:19.499Z,18.40
2022-11-29T18:41:49.062Z,18.20
2022-11-29T18:44:19.008Z,18.70
2022-11-29T18:46:46.519Z,15.80
2022-11-29T18:49:16.762Z,16.55
2022-11-29T18:51:45.918Z,15.30
2022-11-29T18:54:18.380Z,13.48
2022-11-29T18:56:46.221Z,16.65
2022-11-29T18:59:19.519Z,17.98
2022-11-29T19:01:48.312Z,15.43
2022-11-29T19:04:21.141Z,18.77
2022-11-29T19:06:48.732Z,18.35
2022-11-29T19:09:21.186Z,18.08
2022-11-29T19:11:51.380Z,17.85
2022-11-29T19:14:19.199Z,18.00
2022-11-29T19:16:49.043Z,17.67
2022-11-29T19:19:15.821Z,17.45
2022-11-29T19:21:42.817Z,11.88
2022-11-29T19:24:17.601Z,13.02
2022-11-29T19:26:47.413Z,13.18
2022-11-29T19:29:15.480Z,13.10
2022-11-29T19:31:42.894Z,12.80
2022-11-29T19:34:10.226Z,15.02
2022-11-29T19:36:43.694Z,15.77
2022-11-29T19:39:14.443Z,15.02
2022-11-29T19:41:45.468Z,19.35
2022-11-29T19:44:13.141Z,18.70
2022-11-29T19:46:47.024Z,18.77
2022-11-29T19:49:14.611Z,12.70
2022-11-29T19:51:42.760Z,19.35
2022-11-29T19:54:10.757Z,15.70
2022-11-29T19:56:38.977Z,17.00
2022-11-29T19:59:08.063Z,13.93
2022-11-29T20:01:40.861Z,14.60
2022-11-29T20:04:10.437Z,12.70
2022-11-29T20:06:38.231Z,12.73
2022-11-29T20:09:06.448Z,13.07
2022-11-29T20:11:33.539Z,18.00
2022-11-29T20:14:03.416Z,15.32
2022-11-29T20:16:31.747Z,15.43
2022-11-29T20:18:59.579Z,18.83
2022-11-29T20:21:33.764Z,14.60
2022-11-29T20:24:05.015Z,17.80
2022-11-29T20:26:35.099Z,16.90
2022-11-29T20:29:02.939Z,13.65
2022-11-29T20:31:32.908Z,17.13
2022-11-29T20:34:00.118Z,16.10
2022-11-29T20:37:25.780Z,17.63
2022-11-29T20:40:19.400Z,14.30
2022-11-29T20:43:31.135Z,8.98
2022-11-29T20:45:58.075Z,13.15
2022-11-29T20:48:25.738Z,16.58
2022-11-29T20:51:02.770Z,17.05
2022-11-29T20:53:44.152Z,19.40
2022-11-29T20:56:12.461Z,14.88
2022-11-29T20:58:40.099Z,14.85
2022-11-29T21:01:07.642Z,15.10
2022-11-29T21:03:34.845Z,12.20
2022-11-29T21:06:04.601Z,17.40
2022-11-29T21:08:31.609Z,18.90
2022-11-29T21:11:09.131Z,14.85
2022-11-29T21:13:36.751Z,14.30
2022-11-29T21:16:04.676Z,17.08
2022-11-29T21:18:32.545Z,17.40
2022-11-29T21:21:10.970Z,12.38
2022-11-29T21:24:02.237Z,15.93
2022-11-29T21:29:16.580Z,9.20
2022-11-29T21:31:45.320Z,19.63
2022-11-29T21:34:12.490Z,19.60
2022-11-29T21:36:39.990Z,16.20
2022-11-29T21:39:12.584Z,19.60
2022-11-29T21:41:40.374Z,20.55
2022-11-29T21:44:08.192Z,18.00
2022-11-29T21:46:36.022Z,10.93
2022-11-29T21:49:02.962Z,19.05
2022-11-29T21:51:29.738Z,20.05
2022-11-29T21:53:56.455Z,16.60
2022-11-29T21:56:23.167Z,18.60
2022-11-29T21:58:49.933Z,19.50
2022-11-29T22:01:20.178Z,19.83
2022-11-29T22:03:47.587Z,20.58
2022-11-29T22:06:20.799Z,21.73
2022-11-29T22:08:48.819Z,19.88
2022-11-29T22:11:31.877Z,21.02
2022-11-29T22:14:14.850Z,19.13
2022-11-29T22:16:51.609Z,19.00
2022-11-29T22:19:31.182Z,20.52
2022-11-29T22:22:01.843Z,19.50
2022-11-29T22:24:32.630Z,19.42
2022-11-29T22:26:59.787Z,18.45
2022-11-29T22:29:26.558Z,19.13
2022-11-29T22:31:55.995Z,17.50
2022-11-29T22:34:25.227Z,19.73
2022-11-29T22:36:52.391Z,17.08
2022-11-29T22:39:19.223Z,19.55
2022-11-29T22:41:53.622Z,19.42
2022-11-29T22:44:21.358Z,20.42
2022-11-29T22:46:48.339Z,20.65
2022-11-29T22:49:15.215Z,21.58
2022-11-29T22:51:42.008Z,20.15
2022-11-29T22:54:17.899Z,21.55
2022-11-29T22:56:46.167Z,19.90
2022-11-29T22:59:13.135Z,21.17
2022-11-29T23:01:41.829Z,21.50
2022-11-29T23:04:11.010Z,20.35
2022-11-29T23:06:44.587Z,20.55
2022-11-29T23:09:16.592Z,19.20
2022-11-29T23:14:13.121Z,20.38
2022-11-29T23:16:40.650Z,19.13
2022-11-29T23:19:07.501Z,20.70
2022-11-29T23:21:40.691Z,19.60
2022-11-29T23:24:08.003Z,19.83
2022-11-29T23:26:41.536Z,18.60
2022-11-29T23:29:12.778Z,18.50
2022-11-29T23:31:40.103Z,19.02
2022-11-29T23:34:07.867Z,17.02
2022-11-29T23:36:34.915Z,17.35
2022-11-29T23:39:05.597Z,17.85
2022-11-29T23:41:33.675Z,16.70
2022-11-29T23:44:00.453Z,17.05
2022-11-29T23:46:27.320Z,17.98
2022-11-29T23:48:54.280Z,16.85
2022-11-29T23:51:21.314Z,15.85
2022-11-29T23:53:53.831Z,15.18
2022-11-29T23:56:22.391Z,16.50
2022-11-29T23:58:49.379Z,14.25
